Données météorologiques d'aviation de Metar     LHBP Budapest Liszt Ferenc International Airport
Température
3°C Température
-1°C Point de rosée
75% Humidité



Vitesse
32 KM/H
20 MPH
9 M/S
17 KTS



300°
ONO
Conditions actuelles

Partiellement nuageux Partiellement nuageux
Pression 998.92 (hPa) - 29.5 (inHg)
Visibilité 6.2 (mile) - 10 (km)
Aéroport
Code de l'aéroport LHBP

Emplacement: Budapest Liszt Ferenc International Airport
Distance: 14 (km)

Metar:
LHBP 291430Z 30017KT 9999 FEW023 BKN230 03/M01 Q0999 NOSIG

Temps: 2021-11-29 15:30 CET